sensor_id;sensor_type;location;lat;lon;timestamp;temperature;humidity
32698;DHT22;19087;51.062;3.754;2022-07-05T00:01:58;17.60;98.80
32698;DHT22;19087;51.062;3.754;2022-07-05T00:04:24;17.50;98.80
32698;DHT22;19087;51.062;3.754;2022-07-05T00:06:49;17.50;98.60
32698;DHT22;19087;51.062;3.754;2022-07-05T00:09:34;17.50;98.60
32698;DHT22;19087;51.062;3.754;2022-07-05T00:12:00;17.50;98.70
32698;DHT22;19087;51.062;3.754;2022-07-05T00:14:26;17.40;99.00
32698;DHT22;19087;51.062;3.754;2022-07-05T00:16:52;17.40;99.10
32698;DHT22;19087;51.062;3.754;2022-07-05T00:19:18;17.30;99.10
32698;DHT22;19087;51.062;3.754;2022-07-05T00:21:43;17.40;98.90
32698;DHT22;19087;51.062;3.754;2022-07-05T00:24:10;17.40;98.80
32698;DHT22;19087;51.062;3.754;2022-07-05T00:26:35;17.30;99.00
32698;DHT22;19087;51.062;3.754;2022-07-05T00:29:01;17.30;99.00
32698;DHT22;19087;51.062;3.754;2022-07-05T00:31:27;17.30;98.90
32698;DHT22;19087;51.062;3.754;2022-07-05T00:33:53;17.30;98.90
32698;DHT22;19087;51.062;3.754;2022-07-05T00:36:18;17.20;99.10
32698;DHT22;19087;51.062;3.754;2022-07-05T00:38:44;17.20;99.10
32698;DHT22;19087;51.062;3.754;2022-07-05T00:41:09;17.20;99.20
32698;DHT22;19087;51.062;3.754;2022-07-05T00:43:35;17.20;99.20
32698;DHT22;19087;51.062;3.754;2022-07-05T00:46:01;17.20;99.40
32698;DHT22;19087;51.062;3.754;2022-07-05T00:48:26;17.10;99.20
32698;DHT22;19087;51.062;3.754;2022-07-05T00:50:52;17.10;99.30
32698;DHT22;19087;51.062;3.754;2022-07-05T00:53:18;17.20;99.30
32698;DHT22;19087;51.062;3.754;2022-07-05T00:55:44;17.10;99.20
32698;DHT22;19087;51.062;3.754;2022-07-05T00:58:11;17.10;99.30
32698;DHT22;19087;51.062;3.754;2022-07-05T01:00:37;17.00;99.50
32698;DHT22;19087;51.062;3.754;2022-07-05T01:03:03;17.00;99.70
32698;DHT22;19087;51.062;3.754;2022-07-05T01:05:29;16.90;99.90
32698;DHT22;19087;51.062;3.754;2022-07-05T01:07:59;16.90;99.90
32698;DHT22;19087;51.062;3.754;2022-07-05T01:10:27;16.90;99.90
32698;DHT22;19087;51.062;3.754;2022-07-05T01:12:53;16.90;99.90
32698;DHT22;19087;51.062;3.754;2022-07-05T01:15:23;17.00;99.90
32698;DHT22;19087;51.062;3.754;2022-07-05T01:17:49;17.10;99.60
32698;DHT22;19087;51.062;3.754;2022-07-05T01:20:15;17.00;99.80
32698;DHT22;19087;51.062;3.754;2022-07-05T01:22:57;16.90;99.90
32698;DHT22;19087;51.062;3.754;2022-07-05T01:25:26;16.80;99.90
32698;DHT22;19087;51.062;3.754;2022-07-05T01:27:53;16.70;99.90
32698;DHT22;19087;51.062;3.754;2022-07-05T01:30:19;16.70;99.90
32698;DHT22;19087;51.062;3.754;2022-07-05T01:32:45;16.60;99.90
32698;DHT22;19087;51.062;3.754;2022-07-05T01:35:12;16.60;99.90
32698;DHT22;19087;51.062;3.754;2022-07-05T01:37:38;16.60;99.90
32698;DHT22;19087;51.062;3.754;2022-07-05T01:40:05;16.60;99.90
32698;DHT22;19087;51.062;3.754;2022-07-05T01:42:31;16.60;99.90
32698;DHT22;19087;51.062;3.754;2022-07-05T01:44:56;16.40;99.90
32698;DHT22;19087;51.062;3.754;2022-07-05T01:47:23;16.40;99.90
32698;DHT22;19087;51.062;3.754;2022-07-05T01:49:53;16.50;99.90
32698;DHT22;19087;51.062;3.754;2022-07-05T01:52:21;16.40;99.90
32698;DHT22;19087;51.062;3.754;2022-07-05T01:54:47;16.40;99.90
32698;DHT22;19087;51.062;3.754;2022-07-05T01:57:13;16.50;99.90
32698;DHT22;19087;51.062;3.754;2022-07-05T01:59:39;16.60;99.90
32698;DHT22;19087;51.062;3.754;2022-07-05T02:02:06;16.40;99.90
32698;DHT22;19087;51.062;3.754;2022-07-05T02:04:36;16.30;99.90
32698;DHT22;19087;51.062;3.754;2022-07-05T02:07:06;16.10;99.90
32698;DHT22;19087;51.062;3.754;2022-07-05T02:09:32;15.90;99.90
32698;DHT22;19087;51.062;3.754;2022-07-05T02:11:57;15.80;99.90
32698;DHT22;19087;51.062;3.754;2022-07-05T02:14:23;15.80;99.90
32698;DHT22;19087;51.062;3.754;2022-07-05T02:16:49;15.80;99.90
32698;DHT22;19087;51.062;3.754;2022-07-05T02:19:14;15.80;99.90
32698;DHT22;19087;51.062;3.754;2022-07-05T02:21:40;15.80;99.90
32698;DHT22;19087;51.062;3.754;2022-07-05T02:24:07;15.90;99.90
32698;DHT22;19087;51.062;3.754;2022-07-05T02:26:33;15.90;99.90
32698;DHT22;19087;51.062;3.754;2022-07-05T02:28:58;16.10;99.90
32698;DHT22;19087;51.062;3.754;2022-07-05T02:31:25;16.20;99.90
32698;DHT22;19087;51.062;3.754;2022-07-05T02:33:50;16.20;99.90
32698;DHT22;19087;51.062;3.754;2022-07-05T02:36:18;16.20;99.90
32698;DHT22;19087;51.062;3.754;2022-07-05T02:38:44;16.20;99.90
32698;DHT22;19087;51.062;3.754;2022-07-05T02:41:11;16.20;99.90
32698;DHT22;19087;51.062;3.754;2022-07-05T02:43:38;16.20;99.90
32698;DHT22;19087;51.062;3.754;2022-07-05T02:46:04;16.20;99.90
32698;DHT22;19087;51.062;3.754;2022-07-05T02:48:31;16.20;99.90
32698;DHT22;19087;51.062;3.754;2022-07-05T02:50:57;16.20;99.90
32698;DHT22;19087;51.062;3.754;2022-07-05T02:53:23;16.30;99.90
32698;DHT22;19087;51.062;3.754;2022-07-05T02:55:49;16.30;99.90
32698;DHT22;19087;51.062;3.754;2022-07-05T02:58:15;16.40;99.90
32698;DHT22;19087;51.062;3.754;2022-07-05T03:00:43;16.40;99.90
32698;DHT22;19087;51.062;3.754;2022-07-05T03:03:09;16.50;99.90
32698;DHT22;19087;51.062;3.754;2022-07-05T03:05:34;16.50;99.90
32698;DHT22;19087;51.062;3.754;2022-07-05T03:08:00;16.50;99.90
32698;DHT22;19087;51.062;3.754;2022-07-05T03:10:26;16.20;99.90
32698;DHT22;19087;51.062;3.754;2022-07-05T03:12:51;16.00;99.90
32698;DHT22;19087;51.062;3.754;2022-07-05T03:15:17;15.90;99.90
32698;DHT22;19087;51.062;3.754;2022-07-05T03:17:43;15.80;99.90
32698;DHT22;19087;51.062;3.754;2022-07-05T03:20:09;15.70;99.90
32698;DHT22;19087;51.062;3.754;2022-07-05T03:22:36;15.70;99.90
32698;DHT22;19087;51.062;3.754;2022-07-05T03:25:03;15.60;99.90
32698;DHT22;19087;51.062;3.754;2022-07-05T03:27:28;15.70;99.90
32698;DHT22;19087;51.062;3.754;2022-07-05T03:29:54;15.60;99.90
32698;DHT22;19087;51.062;3.754;2022-07-05T03:32:20;15.70;99.90
32698;DHT22;19087;51.062;3.754;2022-07-05T03:34:45;15.60;99.90
32698;DHT22;19087;51.062;3.754;2022-07-05T03:37:12;15.80;99.90
32698;DHT22;19087;51.062;3.754;2022-07-05T03:39:37;16.00;99.90
32698;DHT22;19087;51.062;3.754;2022-07-05T03:42:03;16.10;99.90
32698;DHT22;19087;51.062;3.754;2022-07-05T03:44:29;16.20;99.90
32698;DHT22;19087;51.062;3.754;2022-07-05T03:46:58;16.30;99.90
32698;DHT22;19087;51.062;3.754;2022-07-05T03:49:23;16.20;99.90
32698;DHT22;19087;51.062;3.754;2022-07-05T03:51:49;16.10;99.90
32698;DHT22;19087;51.062;3.754;2022-07-05T03:54:15;16.20;99.90
32698;DHT22;19087;51.062;3.754;2022-07-05T03:56:40;16.30;99.90
32698;DHT22;19087;51.062;3.754;2022-07-05T03:59:06;16.20;99.90
32698;DHT22;19087;51.062;3.754;2022-07-05T04:01:32;16.30;99.90
32698;DHT22;19087;51.062;3.754;2022-07-05T04:03:57;16.30;99.90
32698;DHT22;19087;51.062;3.754;2022-07-05T04:06:23;16.30;99.90
32698;DHT22;19087;51.062;3.754;2022-07-05T04:08:48;16.30;99.90
32698;DHT22;19087;51.062;3.754;2022-07-05T04:11:14;16.10;99.90
32698;DHT22;19087;51.062;3.754;2022-07-05T04:13:41;16.10;99.90
32698;DHT22;19087;51.062;3.754;2022-07-05T04:16:07;16.10;99.90
32698;DHT22;19087;51.062;3.754;2022-07-05T04:18:33;16.20;99.90
32698;DHT22;19087;51.062;3.754;2022-07-05T04:20:58;16.30;99.90
32698;DHT22;19087;51.062;3.754;2022-07-05T04:23:24;16.20;99.90
32698;DHT22;19087;51.062;3.754;2022-07-05T04:25:50;16.10;99.90
32698;DHT22;19087;51.062;3.754;2022-07-05T04:28:15;16.00;99.90
32698;DHT22;19087;51.062;3.754;2022-07-05T04:30:41;16.00;99.90
32698;DHT22;19087;51.062;3.754;2022-07-05T04:33:07;15.90;99.90
32698;DHT22;19087;51.062;3.754;2022-07-05T04:35:32;16.00;99.90
32698;DHT22;19087;51.062;3.754;2022-07-05T04:37:58;16.00;99.90
32698;DHT22;19087;51.062;3.754;2022-07-05T04:40:23;16.00;99.90
32698;DHT22;19087;51.062;3.754;2022-07-05T04:42:49;15.90;99.90
32698;DHT22;19087;51.062;3.754;2022-07-05T04:45:15;16.00;99.90
32698;DHT22;19087;51.062;3.754;2022-07-05T04:47:40;16.30;99.90
32698;DHT22;19087;51.062;3.754;2022-07-05T04:50:06;16.50;99.90
32698;DHT22;19087;51.062;3.754;2022-07-05T04:52:32;16.60;99.90
32698;DHT22;19087;51.062;3.754;2022-07-05T04:54:58;16.70;99.90
32698;DHT22;19087;51.062;3.754;2022-07-05T04:57:24;16.80;99.90
32698;DHT22;19087;51.062;3.754;2022-07-05T04:59:49;16.90;99.90
32698;DHT22;19087;51.062;3.754;2022-07-05T05:02:15;16.80;99.90
32698;DHT22;19087;51.062;3.754;2022-07-05T05:04:40;16.90;99.90
32698;DHT22;19087;51.062;3.754;2022-07-05T05:07:06;17.20;99.90
32698;DHT22;19087;51.062;3.754;2022-07-05T05:09:32;17.30;99.90
32698;DHT22;19087;51.062;3.754;2022-07-05T05:11:57;17.40;99.90
32698;DHT22;19087;51.062;3.754;2022-07-05T05:14:23;17.40;99.90
32698;DHT22;19087;51.062;3.754;2022-07-05T05:16:49;17.40;99.90
32698;DHT22;19087;51.062;3.754;2022-07-05T05:19:14;17.50;99.90
32698;DHT22;19087;51.062;3.754;2022-07-05T05:21:40;17.50;99.90
32698;DHT22;19087;51.062;3.754;2022-07-05T05:24:06;17.30;99.90
32698;DHT22;19087;51.062;3.754;2022-07-05T05:26:32;17.30;99.90
32698;DHT22;19087;51.062;3.754;2022-07-05T05:28:58;17.50;99.90
32698;DHT22;19087;51.062;3.754;2022-07-05T05:31:24;17.60;99.90
32698;DHT22;19087;51.062;3.754;2022-07-05T05:33:49;17.90;99.90
32698;DHT22;19087;51.062;3.754;2022-07-05T05:36:15;18.10;99.90
32698;DHT22;19087;51.062;3.754;2022-07-05T05:38:41;18.30;99.90
32698;DHT22;19087;51.062;3.754;2022-07-05T05:41:06;18.30;99.90
32698;DHT22;19087;51.062;3.754;2022-07-05T05:43:32;18.30;99.90
32698;DHT22;19087;51.062;3.754;2022-07-05T05:45:58;18.40;99.90
32698;DHT22;19087;51.062;3.754;2022-07-05T05:48:25;18.60;99.90
32698;DHT22;19087;51.062;3.754;2022-07-05T05:50:51;18.70;99.90
32698;DHT22;19087;51.062;3.754;2022-07-05T05:53:17;18.70;99.90
32698;DHT22;19087;51.062;3.754;2022-07-05T05:55:43;18.60;99.90
32698;DHT22;19087;51.062;3.754;2022-07-05T05:58:19;18.80;99.90
32698;DHT22;19087;51.062;3.754;2022-07-05T06:00:51;19.20;99.90
32698;DHT22;19087;51.062;3.754;2022-07-05T06:03:19;19.00;99.90
32698;DHT22;19087;51.062;3.754;2022-07-05T06:05:45;19.10;99.90
32698;DHT22;19087;51.062;3.754;2022-07-05T06:08:11;19.60;99.90
32698;DHT22;19087;51.062;3.754;2022-07-05T06:10:37;20.20;99.90
32698;DHT22;19087;51.062;3.754;2022-07-05T06:13:06;20.80;99.90
32698;DHT22;19087;51.062;3.754;2022-07-05T06:15:32;21.30;99.70
32698;DHT22;19087;51.062;3.754;2022-07-05T06:17:58;21.60;98.60
32698;DHT22;19087;51.062;3.754;2022-07-05T06:20:31;22.00;97.60
32698;DHT22;19087;51.062;3.754;2022-07-05T06:22:57;22.50;97.10
32698;DHT22;19087;51.062;3.754;2022-07-05T06:25:24;23.20;95.50
32698;DHT22;19087;51.062;3.754;2022-07-05T06:27:55;23.40;94.80
32698;DHT22;19087;51.062;3.754;2022-07-05T06:30:23;23.70;93.90
32698;DHT22;19087;51.062;3.754;2022-07-05T06:32:49;23.70;93.70
32698;DHT22;19087;51.062;3.754;2022-07-05T06:35:17;23.70;93.30
32698;DHT22;19087;51.062;3.754;2022-07-05T06:37:48;23.80;93.30
32698;DHT22;19087;51.062;3.754;2022-07-05T06:40:25;23.90;93.10
32698;DHT22;19087;51.062;3.754;2022-07-05T06:42:52;24.00;92.70
32698;DHT22;19087;51.062;3.754;2022-07-05T06:45:19;23.60;92.90
32698;DHT22;19087;51.062;3.754;2022-07-05T06:47:51;23.70;93.00
32698;DHT22;19087;51.062;3.754;2022-07-05T06:50:19;23.70;92.80
32698;DHT22;19087;51.062;3.754;2022-07-05T06:52:44;23.80;92.90
32698;DHT22;19087;51.062;3.754;2022-07-05T06:55:11;24.10;92.70
32698;DHT22;19087;51.062;3.754;2022-07-05T06:57:36;24.50;92.10
32698;DHT22;19087;51.062;3.754;2022-07-05T07:00:03;24.50;91.90
32698;DHT22;19087;51.062;3.754;2022-07-05T07:02:29;24.60;91.60
32698;DHT22;19087;51.062;3.754;2022-07-05T07:04:55;24.50;91.60
32698;DHT22;19087;51.062;3.754;2022-07-05T07:07:20;24.80;91.30
32698;DHT22;19087;51.062;3.754;2022-07-05T07:10:05;25.50;91.10
32698;DHT22;19087;51.062;3.754;2022-07-05T07:12:30;27.40;87.60
32698;DHT22;19087;51.062;3.754;2022-07-05T07:14:56;28.30;85.00
32698;DHT22;19087;51.062;3.754;2022-07-05T07:17:23;29.70;81.30
32698;DHT22;19087;51.062;3.754;2022-07-05T07:19:49;30.60;77.20
32698;DHT22;19087;51.062;3.754;2022-07-05T07:22:15;31.90;74.60
32698;DHT22;19087;51.062;3.754;2022-07-05T07:24:41;33.40;71.50
32698;DHT22;19087;51.062;3.754;2022-07-05T07:27:06;34.10;69.20
32698;DHT22;19087;51.062;3.754;2022-07-05T07:29:38;34.80;67.70
32698;DHT22;19087;51.062;3.754;2022-07-05T07:32:05;35.70;65.70
32698;DHT22;19087;51.062;3.754;2022-07-05T07:34:31;36.40;62.60
32698;DHT22;19087;51.062;3.754;2022-07-05T07:36:58;36.80;61.80
32698;DHT22;19087;51.062;3.754;2022-07-05T07:39:24;37.50;59.80
32698;DHT22;19087;51.062;3.754;2022-07-05T07:41:50;36.60;60.30
32698;DHT22;19087;51.062;3.754;2022-07-05T07:44:17;35.40;62.00
32698;DHT22;19087;51.062;3.754;2022-07-05T07:46:42;33.70;64.60
32698;DHT22;19087;51.062;3.754;2022-07-05T07:49:09;32.40;67.00
32698;DHT22;19087;51.062;3.754;2022-07-05T07:51:35;31.20;70.30
32698;DHT22;19087;51.062;3.754;2022-07-05T07:54:01;30.90;70.90
32698;DHT22;19087;51.062;3.754;2022-07-05T07:56:27;30.80;71.60
32698;DHT22;19087;51.062;3.754;2022-07-05T07:58:53;30.80;71.60
32698;DHT22;19087;51.062;3.754;2022-07-05T08:01:20;30.80;71.30
32698;DHT22;19087;51.062;3.754;2022-07-05T08:03:46;30.80;71.90
32698;DHT22;19087;51.062;3.754;2022-07-05T08:06:12;31.30;71.60
32698;DHT22;19087;51.062;3.754;2022-07-05T08:08:40;32.10;70.20
32698;DHT22;19087;51.062;3.754;2022-07-05T08:11:06;33.20;68.60
32698;DHT22;19087;51.062;3.754;2022-07-05T08:13:32;34.60;66.20
32698;DHT22;19087;51.062;3.754;2022-07-05T08:15:58;35.10;63.50
32698;DHT22;19087;51.062;3.754;2022-07-05T08:18:24;34.00;64.30
32698;DHT22;19087;51.062;3.754;2022-07-05T08:21:09;32.80;65.30
32698;DHT22;19087;51.062;3.754;2022-07-05T08:23:53;31.20;68.80
32698;DHT22;19087;51.062;3.754;2022-07-05T08:26:19;30.60;70.00
32698;DHT22;19087;51.062;3.754;2022-07-05T08:28:45;31.50;68.90
32698;DHT22;19087;51.062;3.754;2022-07-05T08:31:11;32.80;66.30
32698;DHT22;19087;51.062;3.754;2022-07-05T08:33:36;33.60;66.20
32698;DHT22;19087;51.062;3.754;2022-07-05T08:36:02;35.00;64.60
32698;DHT22;19087;51.062;3.754;2022-07-05T08:38:28;36.20;61.80
32698;DHT22;19087;51.062;3.754;2022-07-05T08:40:55;36.80;60.20
32698;DHT22;19087;51.062;3.754;2022-07-05T08:43:24;36.50;58.90
32698;DHT22;19087;51.062;3.754;2022-07-05T08:45:52;35.30;60.00
32698;DHT22;19087;51.062;3.754;2022-07-05T08:48:19;33.80;62.20
32698;DHT22;19087;51.062;3.754;2022-07-05T08:50:46;32.40;62.10
32698;DHT22;19087;51.062;3.754;2022-07-05T08:53:18;32.10;64.10
32698;DHT22;19087;51.062;3.754;2022-07-05T08:55:45;32.70;64.00
32698;DHT22;19087;51.062;3.754;2022-07-05T08:58:11;34.00;60.40
32698;DHT22;19087;51.062;3.754;2022-07-05T09:00:42;34.90;59.50
32698;DHT22;19087;51.062;3.754;2022-07-05T09:03:08;35.60;58.60
32698;DHT22;19087;51.062;3.754;2022-07-05T09:05:43;34.20;59.50
32698;DHT22;19087;51.062;3.754;2022-07-05T09:08:13;33.80;60.30
32698;DHT22;19087;51.062;3.754;2022-07-05T09:10:42;34.10;59.30
32698;DHT22;19087;51.062;3.754;2022-07-05T09:13:08;33.50;59.20
32698;DHT22;19087;51.062;3.754;2022-07-05T09:15:38;32.60;59.80
32698;DHT22;19087;51.062;3.754;2022-07-05T09:18:04;31.60;61.30
32698;DHT22;19087;51.062;3.754;2022-07-05T09:20:30;30.80;63.00
32698;DHT22;19087;51.062;3.754;2022-07-05T09:22:56;30.30;64.80
32698;DHT22;19087;51.062;3.754;2022-07-05T09:25:23;29.90;66.00
32698;DHT22;19087;51.062;3.754;2022-07-05T09:28:00;29.40;66.60
32698;DHT22;19087;51.062;3.754;2022-07-05T09:30:34;28.80;67.40
32698;DHT22;19087;51.062;3.754;2022-07-05T09:35:39;27.80;69.40
32698;DHT22;19087;51.062;3.754;2022-07-05T09:38:06;27.50;71.30
32698;DHT22;19087;51.062;3.754;2022-07-05T09:40:58;27.20;72.50
32698;DHT22;19087;51.062;3.754;2022-07-05T09:43:29;26.80;74.90
32698;DHT22;19087;51.062;3.754;2022-07-05T09:45:56;26.00;77.90
32698;DHT22;19087;51.062;3.754;2022-07-05T09:48:22;25.50;78.80
32698;DHT22;19087;51.062;3.754;2022-07-05T09:50:49;25.10;80.20
32698;DHT22;19087;51.062;3.754;2022-07-05T09:53:19;24.70;80.20
32698;DHT22;19087;51.062;3.754;2022-07-05T09:56:06;24.40;79.40
32698;DHT22;19087;51.062;3.754;2022-07-05T09:58:31;24.60;77.80
32698;DHT22;19087;51.062;3.754;2022-07-05T10:00:57;24.60;78.40
32698;DHT22;19087;51.062;3.754;2022-07-05T10:03:23;25.00;77.30
32698;DHT22;19087;51.062;3.754;2022-07-05T10:05:48;25.40;76.60
32698;DHT22;19087;51.062;3.754;2022-07-05T10:08:16;25.80;75.20
32698;DHT22;19087;51.062;3.754;2022-07-05T10:10:43;26.20;74.70
32698;DHT22;19087;51.062;3.754;2022-07-05T10:13:14;26.60;73.60
32698;DHT22;19087;51.062;3.754;2022-07-05T10:15:40;26.40;74.50
32698;DHT22;19087;51.062;3.754;2022-07-05T10:18:08;26.40;72.20
32698;DHT22;19087;51.062;3.754;2022-07-05T10:20:41;26.10;71.30
32698;DHT22;19087;51.062;3.754;2022-07-05T10:23:10;25.50;72.40
32698;DHT22;19087;51.062;3.754;2022-07-05T10:25:37;25.30;74.10
32698;DHT22;19087;51.062;3.754;2022-07-05T10:28:04;25.00;76.50
32698;DHT22;19087;51.062;3.754;2022-07-05T10:30:31;24.90;74.90
32698;DHT22;19087;51.062;3.754;2022-07-05T10:32:58;24.80;75.10
32698;DHT22;19087;51.062;3.754;2022-07-05T10:35:24;25.10;75.30
32698;DHT22;19087;51.062;3.754;2022-07-05T10:37:50;25.20;75.10
32698;DHT22;19087;51.062;3.754;2022-07-05T10:40:16;25.30;74.80
32698;DHT22;19087;51.062;3.754;2022-07-05T10:42:55;25.30;73.10
32698;DHT22;19087;51.062;3.754;2022-07-05T10:45:30;25.20;72.80
32698;DHT22;19087;51.062;3.754;2022-07-05T10:48:16;25.20;73.90
32698;DHT22;19087;51.062;3.754;2022-07-05T10:53:10;25.40;73.20
32698;DHT22;19087;51.062;3.754;2022-07-05T10:55:59;25.50;72.90
32698;DHT22;19087;51.062;3.754;2022-07-05T11:04:05;25.40;72.20
32698;DHT22;19087;51.062;3.754;2022-07-05T11:12:15;25.50;70.80
32698;DHT22;19087;51.062;3.754;2022-07-05T11:17:10;26.00;71.10
32698;DHT22;19087;51.062;3.754;2022-07-05T11:19:59;26.10;70.40
32698;DHT22;19087;51.062;3.754;2022-07-05T11:22:25;26.10;69.70
32698;DHT22;19087;51.062;3.754;2022-07-05T11:24:52;26.10;70.40
32698;DHT22;19087;51.062;3.754;2022-07-05T11:27:18;26.10;70.20
32698;DHT22;19087;51.062;3.754;2022-07-05T11:34:47;25.90;71.50
32698;DHT22;19087;51.062;3.754;2022-07-05T11:39:45;26.00;70.50
32698;DHT22;19087;51.062;3.754;2022-07-05T11:42:20;25.90;70.20
32698;DHT22;19087;51.062;3.754;2022-07-05T11:44:50;25.70;70.90
32698;DHT22;19087;51.062;3.754;2022-07-05T11:47:19;26.00;69.90
32698;DHT22;19087;51.062;3.754;2022-07-05T11:49:55;25.80;70.90
32698;DHT22;19087;51.062;3.754;2022-07-05T11:52:28;25.80;70.20
32698;DHT22;19087;51.062;3.754;2022-07-05T11:54:54;25.60;70.70
32698;DHT22;19087;51.062;3.754;2022-07-05T11:57:20;25.60;69.90
32698;DHT22;19087;51.062;3.754;2022-07-05T11:59:46;25.30;70.70
32698;DHT22;19087;51.062;3.754;2022-07-05T12:02:12;25.30;70.70
32698;DHT22;19087;51.062;3.754;2022-07-05T12:04:38;25.60;70.50
32698;DHT22;19087;51.062;3.754;2022-07-05T12:07:04;25.90;69.70
32698;DHT22;19087;51.062;3.754;2022-07-05T12:09:33;25.80;69.70
32698;DHT22;19087;51.062;3.754;2022-07-05T12:12:18;25.80;69.00
32698;DHT22;19087;51.062;3.754;2022-07-05T12:15:03;25.60;69.50
32698;DHT22;19087;51.062;3.754;2022-07-05T12:17:28;25.50;68.80
32698;DHT22;19087;51.062;3.754;2022-07-05T12:19:54;25.30;69.00
32698;DHT22;19087;51.062;3.754;2022-07-05T12:22:36;25.20;69.50
32698;DHT22;19087;51.062;3.754;2022-07-05T12:25:04;25.50;70.00
32698;DHT22;19087;51.062;3.754;2022-07-05T12:27:32;25.50;70.50
32698;DHT22;19087;51.062;3.754;2022-07-05T12:29:59;25.80;70.40
32698;DHT22;19087;51.062;3.754;2022-07-05T12:32:27;25.80;69.50
32698;DHT22;19087;51.062;3.754;2022-07-05T12:34:54;25.80;69.40
32698;DHT22;19087;51.062;3.754;2022-07-05T12:37:24;25.90;70.00
32698;DHT22;19087;51.062;3.754;2022-07-05T12:40:01;26.00;68.30
32698;DHT22;19087;51.062;3.754;2022-07-05T12:42:38;25.90;69.00
32698;DHT22;19087;51.062;3.754;2022-07-05T12:45:17;25.80;68.60
32698;DHT22;19087;51.062;3.754;2022-07-05T12:47:55;25.80;69.00
32698;DHT22;19087;51.062;3.754;2022-07-05T12:50:25;25.60;68.10
32698;DHT22;19087;51.062;3.754;2022-07-05T12:53:12;25.40;69.20
32698;DHT22;19087;51.062;3.754;2022-07-05T12:56:10;25.30;68.80
32698;DHT22;19087;51.062;3.754;2022-07-05T12:59:00;25.10;68.40
32698;DHT22;19087;51.062;3.754;2022-07-05T13:01:32;24.70;69.50
32698;DHT22;19087;51.062;3.754;2022-07-05T13:09:09;24.30;70.80
32698;DHT22;19087;51.062;3.754;2022-07-05T13:11:35;24.50;71.00
32698;DHT22;19087;51.062;3.754;2022-07-05T13:14:01;24.70;69.80
32698;DHT22;19087;51.062;3.754;2022-07-05T13:16:26;25.00;69.80
32698;DHT22;19087;51.062;3.754;2022-07-05T13:18:52;24.90;69.80
32698;DHT22;19087;51.062;3.754;2022-07-05T13:21:18;24.80;70.60
32698;DHT22;19087;51.062;3.754;2022-07-05T13:23:43;24.80;70.30
32698;DHT22;19087;51.062;3.754;2022-07-05T13:26:09;24.40;70.60
32698;DHT22;19087;51.062;3.754;2022-07-05T13:28:35;24.20;71.60
32698;DHT22;19087;51.062;3.754;2022-07-05T13:31:00;24.10;71.30
32698;DHT22;19087;51.062;3.754;2022-07-05T13:33:26;24.10;71.50
32698;DHT22;19087;51.062;3.754;2022-07-05T13:35:51;24.30;71.40
32698;DHT22;19087;51.062;3.754;2022-07-05T13:38:17;24.20;70.30
32698;DHT22;19087;51.062;3.754;2022-07-05T13:40:43;24.20;70.40
32698;DHT22;19087;51.062;3.754;2022-07-05T13:43:08;24.40;70.50
32698;DHT22;19087;51.062;3.754;2022-07-05T13:45:34;24.60;69.30
32698;DHT22;19087;51.062;3.754;2022-07-05T13:48:00;24.70;69.00
32698;DHT22;19087;51.062;3.754;2022-07-05T13:50:25;24.80;68.90
32698;DHT22;19087;51.062;3.754;2022-07-05T13:53:00;25.00;68.30
32698;DHT22;19087;51.062;3.754;2022-07-05T13:55:26;25.00;67.80
32698;DHT22;19087;51.062;3.754;2022-07-05T13:57:52;24.90;68.40
32698;DHT22;19087;51.062;3.754;2022-07-05T14:00:18;24.70;67.80
32698;DHT22;19087;51.062;3.754;2022-07-05T14:02:44;24.60;68.10
32698;DHT22;19087;51.062;3.754;2022-07-05T14:05:10;24.20;67.80
32698;DHT22;19087;51.062;3.754;2022-07-05T14:07:36;23.90;68.70
32698;DHT22;19087;51.062;3.754;2022-07-05T14:10:03;23.90;69.30
32698;DHT22;19087;51.062;3.754;2022-07-05T14:12:29;23.90;69.40
32698;DHT22;19087;51.062;3.754;2022-07-05T14:14:55;24.00;68.70
32698;DHT22;19087;51.062;3.754;2022-07-05T14:17:20;24.10;67.90
32698;DHT22;19087;51.062;3.754;2022-07-05T14:19:46;23.80;68.20
32698;DHT22;19087;51.062;3.754;2022-07-05T14:22:12;23.50;69.00
32698;DHT22;19087;51.062;3.754;2022-07-05T14:24:37;23.30;69.70
32698;DHT22;19087;51.062;3.754;2022-07-05T14:27:03;23.20;70.30
32698;DHT22;19087;51.062;3.754;2022-07-05T14:29:34;23.30;70.20
32698;DHT22;19087;51.062;3.754;2022-07-05T14:32:00;23.20;70.00
32698;DHT22;19087;51.062;3.754;2022-07-05T14:34:26;23.20;69.30
32698;DHT22;19087;51.062;3.754;2022-07-05T14:36:54;23.10;69.60
32698;DHT22;19087;51.062;3.754;2022-07-05T14:39:19;23.10;70.20
32698;DHT22;19087;51.062;3.754;2022-07-05T14:41:46;23.30;70.90
32698;DHT22;19087;51.062;3.754;2022-07-05T14:44:13;23.30;70.30
32698;DHT22;19087;51.062;3.754;2022-07-05T14:46:40;23.40;70.30
32698;DHT22;19087;51.062;3.754;2022-07-05T14:49:07;23.40;69.40
32698;DHT22;19087;51.062;3.754;2022-07-05T14:51:33;23.30;70.30
32698;DHT22;19087;51.062;3.754;2022-07-05T14:53:58;23.20;70.50
32698;DHT22;19087;51.062;3.754;2022-07-05T14:56:24;23.20;71.20
32698;DHT22;19087;51.062;3.754;2022-07-05T14:58:49;23.30;69.60
32698;DHT22;19087;51.062;3.754;2022-07-05T15:01:15;23.20;69.80
32698;DHT22;19087;51.062;3.754;2022-07-05T15:03:43;23.20;70.40
32698;DHT22;19087;51.062;3.754;2022-07-05T15:06:09;23.30;70.20
32698;DHT22;19087;51.062;3.754;2022-07-05T15:08:35;23.30;69.60
32698;DHT22;19087;51.062;3.754;2022-07-05T15:11:00;23.60;69.90
32698;DHT22;19087;51.062;3.754;2022-07-05T15:13:26;23.50;68.50
32698;DHT22;19087;51.062;3.754;2022-07-05T15:15:54;23.30;68.60
32698;DHT22;19087;51.062;3.754;2022-07-05T15:18:22;23.10;69.10
32698;DHT22;19087;51.062;3.754;2022-07-05T15:20:48;22.90;68.70
32698;DHT22;19087;51.062;3.754;2022-07-05T15:23:17;22.70;70.00
32698;DHT22;19087;51.062;3.754;2022-07-05T15:25:42;22.60;70.70
32698;DHT22;19087;51.062;3.754;2022-07-05T15:28:08;22.80;69.70
32698;DHT22;19087;51.062;3.754;2022-07-05T15:30:36;22.90;69.70
32698;DHT22;19087;51.062;3.754;2022-07-05T15:33:03;22.70;70.30
32698;DHT22;19087;51.062;3.754;2022-07-05T15:35:29;22.80;69.10
32698;DHT22;19087;51.062;3.754;2022-07-05T15:37:54;22.80;68.70
32698;DHT22;19087;51.062;3.754;2022-07-05T15:40:20;22.60;69.30
32698;DHT22;19087;51.062;3.754;2022-07-05T15:42:46;22.70;69.00
32698;DHT22;19087;51.062;3.754;2022-07-05T15:45:11;22.70;69.30
32698;DHT22;19087;51.062;3.754;2022-07-05T15:47:37;22.70;68.50
32698;DHT22;19087;51.062;3.754;2022-07-05T15:50:06;22.70;68.50
32698;DHT22;19087;51.062;3.754;2022-07-05T15:52:32;22.80;68.50
32698;DHT22;19087;51.062;3.754;2022-07-05T15:54:57;22.60;68.00
32698;DHT22;19087;51.062;3.754;2022-07-05T15:57:23;22.50;68.10
32698;DHT22;19087;51.062;3.754;2022-07-05T15:59:51;22.40;69.40
32698;DHT22;19087;51.062;3.754;2022-07-05T16:02:17;22.30;68.50
32698;DHT22;19087;51.062;3.754;2022-07-05T16:04:43;22.30;68.00